sensor_id;sensor_type;location;lat;lon;timestamp;pressure;altitude;pressure_sealevel;temperature;humidity
55466;BME280;41329;41.594;23.810;2023-06-04T00:01:54;95340.97;;;17.28;74.02
55466;BME280;41329;41.594;23.810;2023-06-04T00:04:20;95344.16;;;17.27;73.99
55466;BME280;41329;41.594;23.810;2023-06-04T00:06:47;95370.84;;;17.42;74.05
55466;BME280;41329;41.594;23.810;2023-06-04T00:09:12;95340.59;;;17.23;73.79
55466;BME280;41329;41.594;23.810;2023-06-04T00:11:38;95348.22;;;17.22;74.09
55466;BME280;41329;41.594;23.810;2023-06-04T00:14:03;95356.56;;;17.26;74.06
55466;BME280;41329;41.594;23.810;2023-06-04T00:16:28;95369.22;;;17.37;74.05
55466;BME280;41329;41.594;23.810;2023-06-04T00:18:54;95363.22;;;17.39;74.25
55466;BME280;41329;41.594;23.810;2023-06-04T00:21:19;95354.13;;;17.31;74.11
55466;BME280;41329;41.594;23.810;2023-06-04T00:23:45;95361.34;;;17.29;73.97
55466;BME280;41329;41.594;23.810;2023-06-04T00:26:10;95345.06;;;17.17;73.89
55466;BME280;41329;41.594;23.810;2023-06-04T00:28:36;95343.41;;;17.23;73.77
55466;BME280;41329;41.594;23.810;2023-06-04T00:31:04;95328.75;;;17.08;73.50
55466;BME280;41329;41.594;23.810;2023-06-04T00:33:30;95361.00;;;17.20;73.34
55466;BME280;41329;41.594;23.810;2023-06-04T00:35:56;95336.84;;;16.99;73.28
55466;BME280;41329;41.594;23.810;2023-06-04T00:38:21;95370.69;;;17.12;73.36
55466;BME280;41329;41.594;23.810;2023-06-04T00:40:47;95372.72;;;17.04;73.47
55466;BME280;41329;41.594;23.810;2023-06-04T00:43:12;95370.72;;;17.05;73.51
55466;BME280;41329;41.594;23.810;2023-06-04T00:45:39;95367.22;;;16.97;73.48
55466;BME280;41329;41.594;23.810;2023-06-04T00:48:05;95350.13;;;16.85;73.48
55466;BME280;41329;41.594;23.810;2023-06-04T00:50:31;95388.72;;;17.04;73.71
55466;BME280;41329;41.594;23.810;2023-06-04T00:52:58;95374.09;;;16.82;74.04
55466;BME280;41329;41.594;23.810;2023-06-04T00:55:24;95378.88;;;16.85;74.13
55466;BME280;41329;41.594;23.810;2023-06-04T00:57:50;95379.66;;;16.86;74.47
55466;BME280;41329;41.594;23.810;2023-06-04T01:00:16;95379.69;;;16.82;74.53
55466;BME280;41329;41.594;23.810;2023-06-04T01:02:43;95380.91;;;16.81;74.81
55466;BME280;41329;41.594;23.810;2023-06-04T01:07:50;95390.16;;;16.68;76.36
55466;BME280;41329;41.594;23.810;2023-06-04T01:10:15;95377.81;;;16.65;76.75
55466;BME280;41329;41.594;23.810;2023-06-04T01:12:41;95364.63;;;16.69;76.79
55466;BME280;41329;41.594;23.810;2023-06-04T01:15:08;95377.72;;;16.79;76.67
55466;BME280;41329;41.594;23.810;2023-06-04T01:17:40;95388.84;;;16.86;76.05
55466;BME280;41329;41.594;23.810;2023-06-04T01:23:19;95385.25;;;16.89;74.83
55466;BME280;41329;41.594;23.810;2023-06-04T01:25:50;95380.84;;;16.88;74.47
55466;BME280;41329;41.594;23.810;2023-06-04T01:28:16;95380.88;;;16.85;74.29
55466;BME280;41329;41.594;23.810;2023-06-04T01:30:44;95380.91;;;16.81;74.24
55466;BME280;41329;41.594;23.810;2023-06-04T01:33:16;95356.28;;;16.62;74.40
55466;BME280;41329;41.594;23.810;2023-06-04T01:35:41;95378.16;;;16.74;74.41
55466;BME280;41329;41.594;23.810;2023-06-04T01:38:07;95379.41;;;16.66;74.63
55466;BME280;41329;41.594;23.810;2023-06-04T01:40:32;95383.38;;;16.72;74.85
55466;BME280;41329;41.594;23.810;2023-06-04T01:42:58;95369.84;;;16.64;74.80
55466;BME280;41329;41.594;23.810;2023-06-04T01:45:25;95358.81;;;16.43;74.68
55466;BME280;41329;41.594;23.810;2023-06-04T01:47:52;95385.94;;;16.46;74.71
55466;BME280;41329;41.594;23.810;2023-06-04T01:50:18;95352.09;;;16.26;74.94
55466;BME280;41329;41.594;23.810;2023-06-04T01:52:43;95395.47;;;16.52;75.14
55466;BME280;41329;41.594;23.810;2023-06-04T01:55:11;95398.66;;;16.50;74.96
55466;BME280;41329;41.594;23.810;2023-06-04T01:57:39;95395.09;;;16.50;74.91
55466;BME280;41329;41.594;23.810;2023-06-04T02:00:06;95413.47;;;16.33;74.83
55466;BME280;41329;41.594;23.810;2023-06-04T02:02:34;95379.28;;;16.15;74.78
55466;BME280;41329;41.594;23.810;2023-06-04T02:05:01;95408.69;;;16.34;74.58
55466;BME280;41329;41.594;23.810;2023-06-04T02:07:26;95406.31;;;16.32;74.51
55466;BME280;41329;41.594;23.810;2023-06-04T02:09:52;95402.75;;;16.32;74.59
55466;BME280;41329;41.594;23.810;2023-06-04T02:12:17;95414.66;;;16.36;74.56
55466;BME280;41329;41.594;23.810;2023-06-04T02:14:43;95392.81;;;16.17;74.65
55466;BME280;41329;41.594;23.810;2023-06-04T02:17:11;95424.69;;;16.26;75.00
55466;BME280;41329;41.594;23.810;2023-06-04T02:19:42;95410.78;;;16.12;75.66
55466;BME280;41329;41.594;23.810;2023-06-04T02:22:16;95417.53;;;16.22;76.01
55466;BME280;41329;41.594;23.810;2023-06-04T02:24:41;95435.84;;;16.30;76.00
55466;BME280;41329;41.594;23.810;2023-06-04T02:27:08;95433.84;;;16.30;76.28
55466;BME280;41329;41.594;23.810;2023-06-04T02:29:33;95427.09;;;16.24;76.53
55466;BME280;41329;41.594;23.810;2023-06-04T02:31:59;95439.03;;;16.32;76.74
55466;BME280;41329;41.594;23.810;2023-06-04T02:34:24;95413.94;;;16.25;76.91
55466;BME280;41329;41.594;23.810;2023-06-04T02:36:50;95421.06;;;16.33;77.17
55466;BME280;41329;41.594;23.810;2023-06-04T02:39:16;95447.75;;;16.51;77.14
55466;BME280;41329;41.594;23.810;2023-06-04T02:41:42;95442.53;;;16.53;77.46
55466;BME280;41329;41.594;23.810;2023-06-04T02:44:07;95448.91;;;16.57;77.47
55466;BME280;41329;41.594;23.810;2023-06-04T02:46:32;95450.47;;;16.65;77.35
55466;BME280;41329;41.594;23.810;2023-06-04T02:48:58;95446.84;;;16.65;77.08
55466;BME280;41329;41.594;23.810;2023-06-04T02:51:24;95450.03;;;16.70;77.34
55466;BME280;41329;41.594;23.810;2023-06-04T02:53:50;95439.25;;;16.69;77.41
55466;BME280;41329;41.594;23.810;2023-06-04T02:56:15;95432.50;;;16.63;77.68
55466;BME280;41329;41.594;23.810;2023-06-04T02:58:54;95459.53;;;16.83;78.15
55466;BME280;41329;41.594;23.810;2023-06-04T03:01:25;95461.50;;;16.86;77.70
55466;BME280;41329;41.594;23.810;2023-06-04T03:03:52;95453.16;;;16.79;76.75
55466;BME280;41329;41.594;23.810;2023-06-04T03:06:19;95471.53;;;16.77;76.20
55466;BME280;41329;41.594;23.810;2023-06-04T03:08:49;95465.16;;;16.73;75.97
55466;BME280;41329;41.594;23.810;2023-06-04T03:11:18;95468.81;;;16.70;75.46
55466;BME280;41329;41.594;23.810;2023-06-04T03:13:48;95471.22;;;16.61;75.73
55466;BME280;41329;41.594;23.810;2023-06-04T03:16:13;95456.53;;;16.50;75.54
55466;BME280;41329;41.594;23.810;2023-06-04T03:18:42;95457.75;;;16.49;75.77
55466;BME280;41329;41.594;23.810;2023-06-04T03:21:08;95473.25;;;16.53;76.23
55466;BME280;41329;41.594;23.810;2023-06-04T03:23:34;95477.63;;;16.58;77.07
55466;BME280;41329;41.594;23.810;2023-06-04T03:26:01;95443.00;;;16.41;77.93
55466;BME280;41329;41.594;23.810;2023-06-04T03:28:27;95472.44;;;16.63;78.21
55466;BME280;41329;41.594;23.810;2023-06-04T03:30:52;95486.34;;;16.70;78.51
55466;BME280;41329;41.594;23.810;2023-06-04T03:33:18;95477.19;;;16.66;78.30
55466;BME280;41329;41.594;23.810;2023-06-04T03:35:43;95483.97;;;16.72;77.94
55466;BME280;41329;41.594;23.810;2023-06-04T03:38:08;95435.78;;;16.44;78.01
55466;BME280;41329;41.594;23.810;2023-06-04T03:40:34;95479.16;;;16.73;77.96
55466;BME280;41329;41.594;23.810;2023-06-04T03:42:59;95491.50;;;16.79;78.15
55466;BME280;41329;41.594;23.810;2023-06-04T03:45:26;95495.06;;;16.79;78.20
55466;BME280;41329;41.594;23.810;2023-06-04T03:47:51;95503.06;;;16.81;78.40
55466;BME280;41329;41.594;23.810;2023-06-04T03:50:18;95459.28;;;16.60;78.51
55466;BME280;41329;41.594;23.810;2023-06-04T03:52:44;95472.38;;;16.70;78.41
55466;BME280;41329;41.594;23.810;2023-06-04T03:55:09;95493.47;;;16.85;78.60
55466;BME280;41329;41.594;23.810;2023-06-04T03:57:36;95466.84;;;16.63;78.52
55466;BME280;41329;41.594;23.810;2023-06-04T04:00:09;95501.91;;;16.75;78.40
55466;BME280;41329;41.594;23.810;2023-06-04T04:02:42;95474.03;;;16.57;78.14
55466;BME280;41329;41.594;23.810;2023-06-04T04:05:07;95469.25;;;16.58;78.41
55466;BME280;41329;41.594;23.810;2023-06-04T04:07:33;95476.06;;;16.46;78.50
55466;BME280;41329;41.594;23.810;2023-06-04T04:09:58;95496.06;;;16.41;78.58
55466;BME280;41329;41.594;23.810;2023-06-04T04:12:24;95497.63;;;16.39;78.54
55466;BME280;41329;41.594;23.810;2023-06-04T04:14:49;95506.41;;;16.44;78.70
55466;BME280;41329;41.594;23.810;2023-06-04T04:17:15;95513.19;;;16.36;78.41
55466;BME280;41329;41.594;23.810;2023-06-04T04:19:40;95514.78;;;16.37;78.52
55466;BME280;41329;41.594;23.810;2023-06-04T04:22:06;95508.47;;;16.19;79.04
55466;BME280;41329;41.594;23.810;2023-06-04T04:24:31;95509.69;;;16.11;79.05
55466;BME280;41329;41.594;23.810;2023-06-04T04:26:59;95532.38;;;16.20;79.35
55466;BME280;41329;41.594;23.810;2023-06-04T04:29:25;95501.72;;;16.10;78.87
55466;BME280;41329;41.594;23.810;2023-06-04T04:31:54;95523.59;;;16.29;78.20
55466;BME280;41329;41.594;23.810;2023-06-04T04:34:25;95509.25;;;16.23;78.47
55466;BME280;41329;41.594;23.810;2023-06-04T04:36:50;95511.22;;;16.30;78.72
55466;BME280;41329;41.594;23.810;2023-06-04T04:39:19;95532.75;;;16.43;78.56
55466;BME280;41329;41.594;23.810;2023-06-04T04:41:45;95535.94;;;16.49;78.31
55466;BME280;41329;41.594;23.810;2023-06-04T04:44:11;95536.78;;;16.25;78.61
55466;BME280;41329;41.594;23.810;2023-06-04T04:46:36;95515.28;;;16.04;79.42
55466;BME280;41329;41.594;23.810;2023-06-04T04:49:02;95531.66;;;15.85;81.14
55466;BME280;41329;41.594;23.810;2023-06-04T04:51:27;95530.06;;;15.77;82.16
55466;BME280;41329;41.594;23.810;2023-06-04T04:53:52;95539.25;;;15.88;82.66
55466;BME280;41329;41.594;23.810;2023-06-04T04:56:19;95545.22;;;15.65;83.71
55466;BME280;41329;41.594;23.810;2023-06-04T04:58:45;95550.41;;;15.56;84.95
55466;BME280;41329;41.594;23.810;2023-06-04T05:01:10;95501.38;;;15.31;85.21
55466;BME280;41329;41.594;23.810;2023-06-04T05:03:36;95550.81;;;15.72;85.39
55466;BME280;41329;41.594;23.810;2023-06-04T05:06:01;95539.25;;;15.74;85.03
55466;BME280;41329;41.594;23.810;2023-06-04T05:08:27;95547.22;;;15.96;84.89
55466;BME280;41329;41.594;23.810;2023-06-04T05:10:52;95552.38;;;16.01;85.00
55466;BME280;41329;41.594;23.810;2023-06-04T05:13:17;95530.84;;;15.98;84.54
55466;BME280;41329;41.594;23.810;2023-06-04T05:15:43;95563.13;;;16.06;84.31
55466;BME280;41329;41.594;23.810;2023-06-04T05:18:08;95561.13;;;16.10;84.30
55466;BME280;41329;41.594;23.810;2023-06-04T05:20:34;95550.34;;;16.19;84.32
55466;BME280;41329;41.594;23.810;2023-06-04T05:23:03;95531.22;;;16.14;84.08
55466;BME280;41329;41.594;23.810;2023-06-04T05:25:29;95571.44;;;16.31;83.18
55466;BME280;41329;41.594;23.810;2023-06-04T05:27:56;95559.09;;;16.35;83.19
55466;BME280;41329;41.594;23.810;2023-06-04T05:30:21;95565.06;;;16.37;82.64
55466;BME280;41329;41.594;23.810;2023-06-04T05:32:47;95554.31;;;16.43;82.47
55466;BME280;41329;41.594;23.810;2023-06-04T05:35:16;95541.94;;;16.37;82.22
55466;BME280;41329;41.594;23.810;2023-06-04T05:37:42;95552.31;;;16.43;82.21
55466;BME280;41329;41.594;23.810;2023-06-04T05:40:11;95585.31;;;16.73;81.93
55466;BME280;41329;41.594;23.810;2023-06-04T05:42:37;95579.72;;;16.73;82.03
55466;BME280;41329;41.594;23.810;2023-06-04T05:45:04;95583.78;;;16.58;81.90
55466;BME280;41329;41.594;23.810;2023-06-04T05:47:29;95588.91;;;16.73;81.39
55466;BME280;41329;41.594;23.810;2023-06-04T05:49:55;95573.78;;;16.71;81.08
55466;BME280;41329;41.594;23.810;2023-06-04T05:52:21;95592.06;;;16.86;80.71
55466;BME280;41329;41.594;23.810;2023-06-04T05:54:46;95524.38;;;16.43;80.31
55466;BME280;41329;41.594;23.810;2023-06-04T05:57:12;95576.13;;;16.79;80.04
55466;BME280;41329;41.594;23.810;2023-06-04T05:59:37;95596.03;;;16.88;79.84
55466;BME280;41329;41.594;23.810;2023-06-04T06:02:02;95602.00;;;16.94;80.11
55466;BME280;41329;41.594;23.810;2023-06-04T06:04:28;95582.47;;;16.90;80.53
55466;BME280;41329;41.594;23.810;2023-06-04T06:06:53;95608.38;;;16.98;79.99
55466;BME280;41329;41.594;23.810;2023-06-04T06:09:19;95571.31;;;16.83;80.28
55466;BME280;41329;41.594;23.810;2023-06-04T06:11:45;95605.94;;;17.10;79.89
55466;BME280;41329;41.594;23.810;2023-06-04T06:14:10;95593.91;;;17.13;79.46
55466;BME280;41329;41.594;23.810;2023-06-04T06:16:36;95586.31;;;17.17;79.26
55466;BME280;41329;41.594;23.810;2023-06-04T06:19:02;95586.03;;;17.01;79.30
55466;BME280;41329;41.594;23.810;2023-06-04T06:21:27;95582.84;;;16.92;79.73
55466;BME280;41329;41.594;23.810;2023-06-04T06:23:54;95594.81;;;17.00;80.67
55466;BME280;41329;41.594;23.810;2023-06-04T06:26:19;95593.16;;;17.13;81.11
55466;BME280;41329;41.594;23.810;2023-06-04T06:28:45;95581.97;;;17.09;80.70
55466;BME280;41329;41.594;23.810;2023-06-04T06:31:10;95594.28;;;17.22;80.14
55466;BME280;41329;41.594;23.810;2023-06-04T06:33:36;95605.44;;;17.29;80.05
55466;BME280;41329;41.594;23.810;2023-06-04T06:36:15;95575.53;;;17.19;79.05
55466;BME280;41329;41.594;23.810;2023-06-04T06:38:43;95581.88;;;17.27;78.71
55466;BME280;41329;41.594;23.810;2023-06-04T06:41:09;95606.53;;;17.49;79.26
55466;BME280;41329;41.594;23.810;2023-06-04T06:43:34;95607.31;;;17.53;79.73
55466;BME280;41329;41.594;23.810;2023-06-04T06:46:00;95596.94;;;17.54;78.46
55466;BME280;41329;41.594;23.810;2023-06-04T06:48:25;95597.59;;;17.72;79.30
55466;BME280;41329;41.594;23.810;2023-06-04T06:50:50;95582.13;;;17.53;78.52
55466;BME280;41329;41.594;23.810;2023-06-04T06:53:16;95588.47;;;17.64;77.75
55466;BME280;41329;41.594;23.810;2023-06-04T06:55:41;95596.72;;;17.82;78.90
55466;BME280;41329;41.594;23.810;2023-06-04T06:58:07;95587.00;;;17.97;78.68
55466;BME280;41329;41.594;23.810;2023-06-04T07:00:32;95591.59;;;18.21;75.64
55466;BME280;41329;41.594;23.810;2023-06-04T07:02:57;95606.59;;;18.45;77.45
55466;BME280;41329;41.594;23.810;2023-06-04T07:05:23;95588.28;;;18.30;74.85
55466;BME280;41329;41.594;23.810;2023-06-04T07:07:48;95596.34;;;18.28;75.63
55466;BME280;41329;41.594;23.810;2023-06-04T07:10:13;95605.06;;;18.33;76.09
55466;BME280;41329;41.594;23.810;2023-06-04T07:12:39;95594.22;;;18.39;74.87
55466;BME280;41329;41.594;23.810;2023-06-04T07:15:06;95593.31;;;18.52;75.87
55466;BME280;41329;41.594;23.810;2023-06-04T07:17:32;95603.47;;;18.76;74.76
55466;BME280;41329;41.594;23.810;2023-06-04T07:19:57;95604.44;;;18.93;74.37
55466;BME280;41329;41.594;23.810;2023-06-04T07:22:23;95606.03;;;18.94;70.68
55466;BME280;41329;41.594;23.810;2023-06-04T07:24:48;95604.41;;;18.96;72.02
55466;BME280;41329;41.594;23.810;2023-06-04T07:27:14;95601.28;;;18.91;72.86
55466;BME280;41329;41.594;23.810;2023-06-04T07:29:43;95604.22;;;18.80;72.51
55466;BME280;41329;41.594;23.810;2023-06-04T07:32:09;95588.03;;;18.58;71.27
55466;BME280;41329;41.594;23.810;2023-06-04T07:34:34;95623.56;;;18.68;72.77
55466;BME280;41329;41.594;23.810;2023-06-04T07:37:00;95623.84;;;18.80;73.02
55466;BME280;41329;41.594;23.810;2023-06-04T07:39:26;95616.88;;;18.92;72.03
55466;BME280;41329;41.594;23.810;2023-06-04T07:41:51;95623.91;;;19.07;72.01
55466;BME280;41329;41.594;23.810;2023-06-04T07:44:16;95626.69;;;19.10;71.94
55466;BME280;41329;41.594;23.810;2023-06-04T07:46:42;95595.09;;;19.03;70.43
55466;BME280;41329;41.594;23.810;2023-06-04T07:49:08;95614.94;;;19.19;71.15
55466;BME280;41329;41.594;23.810;2023-06-04T07:51:33;95605.69;;;19.22;72.04
55466;BME280;41329;41.594;23.810;2023-06-04T07:54:00;95623.53;;;19.38;72.97
55466;BME280;41329;41.594;23.810;2023-06-04T07:56:26;95625.03;;;19.46;71.43
55466;BME280;41329;41.594;23.810;2023-06-04T07:58:51;95631.59;;;19.36;71.09
55466;BME280;41329;41.594;23.810;2023-06-04T08:01:17;95630.41;;;19.34;70.30
55466;BME280;41329;41.594;23.810;2023-06-04T08:03:42;95616.66;;;19.43;71.45
55466;BME280;41329;41.594;23.810;2023-06-04T08:06:08;95623.94;;;19.67;71.88
55466;BME280;41329;41.594;23.810;2023-06-04T08:08:35;95632.63;;;19.76;70.79
55466;BME280;41329;41.594;23.810;2023-06-04T08:11:00;95629.56;;;19.67;70.04
55466;BME280;41329;41.594;23.810;2023-06-04T08:13:25;95619.13;;;19.67;70.72
55466;BME280;41329;41.594;23.810;2023-06-04T08:15:51;95624.00;;;19.90;70.60
55466;BME280;41329;41.594;23.810;2023-06-04T08:18:16;95628.69;;;19.96;70.16
55466;BME280;41329;41.594;23.810;2023-06-04T08:20:42;95625.38;;;20.05;69.13
55466;BME280;41329;41.594;23.810;2023-06-04T08:23:07;95626.75;;;20.20;67.58
55466;BME280;41329;41.594;23.810;2023-06-04T08:25:32;95619.75;;;20.31;68.44
55466;BME280;41329;41.594;23.810;2023-06-04T08:27:58;95610.94;;;20.29;66.28
55466;BME280;41329;41.594;23.810;2023-06-04T08:30:25;95609.66;;;20.34;65.42
55466;BME280;41329;41.594;23.810;2023-06-04T08:32:52;95610.63;;;20.47;64.15
55466;BME280;41329;41.594;23.810;2023-06-04T08:35:18;95590.97;;;20.47;63.19
55466;BME280;41329;41.594;23.810;2023-06-04T08:37:43;95604.47;;;20.75;64.85
55466;BME280;41329;41.594;23.810;2023-06-04T08:40:09;95614.06;;;21.20;65.95
55466;BME280;41329;41.594;23.810;2023-06-04T08:42:40;95618.34;;;21.63;66.61
55466;BME280;41329;41.594;23.810;2023-06-04T08:45:09;95618.53;;;21.92;63.83
55466;BME280;41329;41.594;23.810;2023-06-04T08:47:37;95614.56;;;21.89;60.34
55466;BME280;41329;41.594;23.810;2023-06-04T08:50:04;95609.38;;;22.04;60.08
55466;BME280;41329;41.594;23.810;2023-06-04T08:52:34;95616.53;;;22.08;59.28
55466;BME280;41329;41.594;23.810;2023-06-04T08:55:01;95593.09;;;22.11;60.08
55466;BME280;41329;41.594;23.810;2023-06-04T08:57:27;95601.66;;;22.24;57.61
55466;BME280;41329;41.594;23.810;2023-06-04T08:59:55;95592.41;;;22.23;56.25
55466;BME280;41329;41.594;23.810;2023-06-04T09:02:21;95585.34;;;22.15;56.32
55466;BME280;41329;41.594;23.810;2023-06-04T09:04:46;95600.75;;;22.43;56.28
55466;BME280;41329;41.594;23.810;2023-06-04T09:07:13;95589.47;;;22.43;55.94
55466;BME280;41329;41.594;23.810;2023-06-04T09:09:40;95589.69;;;22.52;54.30
55466;BME280;41329;41.594;23.810;2023-06-04T09:12:10;95602.69;;;22.78;55.31
55466;BME280;41329;41.594;23.810;2023-06-04T09:14:36;95575.47;;;22.71;53.50
55466;BME280;41329;41.594;23.810;2023-06-04T09:17:01;95605.38;;;22.98;53.16
55466;BME280;41329;41.594;23.810;2023-06-04T09:19:27;95599.38;;;22.95;53.37
55466;BME280;41329;41.594;23.810;2023-06-04T09:21:56;95600.88;;;23.00;50.60
55466;BME280;41329;41.594;23.810;2023-06-04T09:24:23;95599.91;;;22.90;51.47
55466;BME280;41329;41.594;23.810;2023-06-04T09:26:50;95599.78;;;23.10;50.96
55466;BME280;41329;41.594;23.810;2023-06-04T09:29:16;95575.47;;;23.00;51.17
55466;BME280;41329;41.594;23.810;2023-06-04T09:31:44;95587.09;;;22.73;50.37
55466;BME280;41329;41.594;23.810;2023-06-04T09:34:11;95565.03;;;22.56;52.77
55466;BME280;41329;41.594;23.810;2023-06-04T09:36:37;95588.38;;;22.85;53.71
55466;BME280;41329;41.594;23.810;2023-06-04T09:39:03;95568.81;;;23.07;52.45
55466;BME280;41329;41.594;23.810;2023-06-04T09:41:30;95577.28;;;23.35;51.76
55466;BME280;41329;41.594;23.810;2023-06-04T09:44:02;95574.00;;;23.24;51.07
55466;BME280;41329;41.594;23.810;2023-06-04T09:46:28;95585.69;;;23.51;49.12
55466;BME280;41329;41.594;23.810;2023-06-04T09:49:04;95585.03;;;23.72;49.30
55466;BME280;41329;41.594;23.810;2023-06-04T09:51:30;95544.81;;;23.56;50.44
55466;BME280;41329;41.594;23.810;2023-06-04T09:53:58;95579.31;;;24.13;51.10
55466;BME280;41329;41.594;23.810;2023-06-04T09:56:25;95557.13;;;24.37;50.42
55466;BME280;41329;41.594;23.810;2023-06-04T09:58:57;95571.56;;;24.51;48.79
55466;BME280;41329;41.594;23.810;2023-06-04T10:01:24;95579.16;;;24.54;48.47
55466;BME280;41329;41.594;23.810;2023-06-04T10:03:51;95574.59;;;24.69;48.51
55466;BME280;41329;41.594;23.810;2023-06-04T10:06:19;95573.47;;;24.79;49.28
55466;BME280;41329;41.594;23.810;2023-06-04T10:08:48;95579.94;;;24.67;49.39
55466;BME280;41329;41.594;23.810;2023-06-04T10:11:17;95569.31;;;24.46;47.39
55466;BME280;41329;41.594;23.810;2023-06-04T10:13:49;95567.50;;;24.52;49.33
55466;BME280;41329;41.594;23.810;2023-06-04T10:16:17;95544.16;;;24.73;49.57
55466;BME280;41329;41.594;23.810;2023-06-04T10:18:45;95536.22;;;24.81;47.69
55466;BME280;41329;41.594;23.810;2023-06-04T10:21:13;95553.38;;;24.86;47.18
55466;BME280;41329;41.594;23.810;2023-06-04T10:23:39;95550.16;;;24.97;47.87
55466;BME280;41329;41.594;23.810;2023-06-04T10:26:06;95550.78;;;25.13;48.71
55466;BME280;41329;41.594;23.810;2023-06-04T10:28:33;95560.00;;;24.71;48.20
55466;BME280;41329;41.594;23.810;2023-06-04T10:30:58;95493.91;;;24.31;49.23
55466;BME280;41329;41.594;23.810;2023-06-04T10:33:24;95535.72;;;24.61;47.21
55466;BME280;41329;41.594;23.810;2023-06-04T10:35:52;95543.16;;;24.55;49.50
55466;BME280;41329;41.594;23.810;2023-06-04T10:38:18;95528.78;;;24.74;49.42
55466;BME280;41329;41.594;23.810;2023-06-04T10:40:45;95545.22;;;24.88;46.92
55466;BME280;41329;41.594;23.810;2023-06-04T10:43:12;95551.47;;;24.83;47.64
55466;BME280;41329;41.594;23.810;2023-06-04T10:45:39;95540.72;;;24.78;46.69
55466;BME280;41329;41.594;23.810;2023-06-04T10:48:06;95548.91;;;24.76;45.78
55466;BME280;41329;41.594;23.810;2023-06-04T10:50:33;95545.41;;;24.72;47.54
55466;BME280;41329;41.594;23.810;2023-06-04T10:52:59;95543.28;;;24.51;47.42
55466;BME280;41329;41.594;23.810;2023-06-04T10:55:31;95514.13;;;24.42;48.72
55466;BME280;41329;41.594;23.810;2023-06-04T10:58:00;95534.16;;;24.81;48.31
55466;BME280;41329;41.594;23.810;2023-06-04T11:00:43;95528.13;;;25.13;49.79
55466;BME280;41329;41.594;23.810;2023-06-04T11:03:11;95540.59;;;25.37;46.26
55466;BME280;41329;41.594;23.810;2023-06-04T11:05:46;95538.88;;;25.40;45.46
55466;BME280;41329;41.594;23.810;2023-06-04T11:08:13;95532.13;;;25.25;46.33
55466;BME280;41329;41.594;23.810;2023-06-04T11:10:42;95540.31;;;25.23;46.28
55466;BME280;41329;41.594;23.810;2023-06-04T11:13:07;95534.66;;;25.23;46.89
55466;BME280;41329;41.594;23.810;2023-06-04T11:18:05;95548.66;;;25.69;47.14
55466;BME280;41329;41.594;23.810;2023-06-04T11:20:30;95543.91;;;25.66;44.84
55466;BME280;41329;41.594;23.810;2023-06-04T11:22:57;95538.72;;;25.65;45.84
55466;BME280;41329;41.594;23.810;2023-06-04T11:25:26;95518.34;;;25.57;46.89
55466;BME280;41329;41.594;23.810;2023-06-04T11:27:53;95545.88;;;25.87;45.76
55466;BME280;41329;41.594;23.810;2023-06-04T11:30:19;95531.81;;;25.75;45.13
55466;BME280;41329;41.594;23.810;2023-06-04T11:32:45;95548.22;;;25.80;44.86
55466;BME280;41329;41.594;23.810;2023-06-04T11:35:10;95545.13;;;25.35;44.83
55466;BME280;41329;41.594;23.810;2023-06-04T11:37:37;95543.44;;;25.37;48.19
55466;BME280;41329;41.594;23.810;2023-06-04T11:40:24;95557.16;;;25.69;47.14
55466;BME280;41329;41.594;23.810;2023-06-04T11:42:50;95524.66;;;25.61;46.47
55466;BME280;41329;41.594;23.810;2023-06-04T11:45:17;95548.41;;;25.85;45.32
55466;BME280;41329;41.594;23.810;2023-06-04T11:47:54;95546.28;;;25.68;46.18
55466;BME280;41329;41.594;23.810;2023-06-04T11:50:21;95539.94;;;24.99;46.81
55466;BME280;41329;41.594;23.810;2023-06-04T11:52:47;95525.56;;;25.06;47.23
55466;BME280;41329;41.594;23.810;2023-06-04T11:55:13;95546.94;;;24.86;46.48
55466;BME280;41329;41.594;23.810;2023-06-04T11:57:40;95538.88;;;24.50;47.82
55466;BME280;41329;41.594;23.810;2023-06-04T12:00:07;95556.44;;;24.45;48.44
55466;BME280;41329;41.594;23.810;2023-06-04T12:02:47;95556.53;;;24.42;49.21
55466;BME280;41329;41.594;23.810;2023-06-04T12:05:14;95540.06;;;24.28;48.12
55466;BME280;41329;41.594;23.810;2023-06-04T12:07:40;95564.84;;;24.24;48.51
55466;BME280;41329;41.594;23.810;2023-06-04T12:10:07;95561.56;;;24.13;48.93
55466;BME280;41329;41.594;23.810;2023-06-04T12:12:34;95561.47;;;23.91;50.24
55466;BME280;41329;41.594;23.810;2023-06-04T12:15:00;95554.41;;;23.71;49.85
55466;BME280;41329;41.594;23.810;2023-06-04T12:17:25;95579.31;;;23.76;50.36
55466;BME280;41329;41.594;23.810;2023-06-04T12:19:52;95577.13;;;23.55;50.41
55466;BME280;41329;41.594;23.810;2023-06-04T12:22:18;95593.38;;;23.51;51.07
55466;BME280;41329;41.594;23.810;2023-06-04T12:24:55;95591.69;;;23.66;50.75
55466;BME280;41329;41.594;23.810;2023-06-04T12:27:22;95603.25;;;23.71;51.57
55466;BME280;41329;41.594;23.810;2023-06-04T12:30:04;95580.41;;;23.53;54.08
55466;BME280;41329;41.594;23.810;2023-06-04T12:32:34;95585.69;;;23.51;55.37
55466;BME280;41329;41.594;23.810;2023-06-04T12:35:00;95597.66;;;23.43;54.72
55466;BME280;41329;41.594;23.810;2023-06-04T12:37:25;95611.47;;;23.53;56.12
55466;BME280;41329;41.594;23.810;2023-06-04T12:39:51;95613.38;;;23.56;55.90
55466;BME280;41329;41.594;23.810;2023-06-04T12:42:17;95622.97;;;23.46;55.16
55466;BME280;41329;41.594;23.810;2023-06-04T12:44:44;95610.66;;;23.40;55.54
55466;BME280;41329;41.594;23.810;2023-06-04T12:47:09;95615.59;;;23.36;57.81
55466;BME280;41329;41.594;23.810;2023-06-04T12:49:36;95625.28;;;23.35;58.02
55466;BME280;41329;41.594;23.810;2023-06-04T12:52:01;95627.97;;;23.26;57.68
55466;BME280;41329;41.594;23.810;2023-06-04T12:54:26;95640.28;;;23.20;57.87
55466;BME280;41329;41.594;23.810;2023-06-04T12:56:53;95653.50;;;23.07;58.26